Time;durP1;ratioP1;P1;durP2;ratioP2;P2;SDS_P1;SDS_P2;PMS_P1;PMS_P2;Temp;Humidity;BMP_temperature;BMP_pressure;BME280_temperature;BME280_humidity;BME280_pressure;Samples;Min_cycle;Max_cycle;Signal;HPM_P1;HPM_P2
2023/05/09 00:01:23;;;;;;;8.20;5.97;;;13.70;99.90;;;;;;5111483;28;20641;-70
2023/05/09 00:03:50;;;;;;;9.87;6.17;;;13.80;99.90;;;;;;5107448;28;20620;-70
2023/05/09 00:06:18;;;;;;;6.23;5.10;;;13.80;99.90;;;;;;5094747;28;20656;-70
2023/05/09 00:08:45;;;;;;;7.93;5.30;;;13.80;99.90;;;;;;5098484;28;20986;-70
2023/05/09 00:11:11;;;;;;;8.97;6.10;;;13.80;99.90;;;;;;5090516;28;20650;-70
2023/05/09 00:13:40;;;;;;;8.07;5.77;;;13.80;99.90;;;;;;5090278;28;20625;-71
2023/05/09 00:16:08;;;;;;;6.23;5.17;;;13.90;99.90;;;;;;5090633;28;20673;-70
2023/05/09 00:18:35;;;;;;;7.03;6.00;;;13.90;99.90;;;;;;5091025;28;20624;-71
2023/05/09 00:21:02;;;;;;;8.90;6.40;;;13.90;99.90;;;;;;5090785;28;20660;-71
2023/05/09 00:23:29;;;;;;;10.73;6.30;;;13.80;99.90;;;;;;5111617;28;20682;-71
2023/05/09 00:25:56;;;;;;;8.10;5.57;;;13.80;99.90;;;;;;5106455;28;20644;-71
2023/05/09 00:28:23;;;;;;;10.03;5.63;;;13.80;99.90;;;;;;5111145;27;20982;-71
2023/05/09 00:30:51;;;;;;;7.03;6.43;;;13.80;99.90;;;;;;5097155;28;21005;-70
2023/05/09 00:33:18;;;;;;;10.00;5.70;;;13.90;99.90;;;;;;5109820;28;20626;-70
2023/05/09 00:35:46;;;;;;;8.97;5.87;;;14.00;99.90;;;;;;5099369;28;21326;-70
2023/05/09 00:38:13;;;;;;;9.63;5.83;;;13.90;99.90;;;;;;5091407;28;20630;-71
2023/05/09 00:40:40;;;;;;;7.80;6.10;;;14.00;99.90;;;;;;5103110;28;20660;-71
2023/05/09 00:43:07;;;;;;;6.80;5.40;;;13.90;99.90;;;;;;5093291;28;20630;-70
2023/05/09 00:45:34;;;;;;;10.53;7.17;;;13.90;99.90;;;;;;5090908;28;20641;-70
2023/05/09 00:48:02;;;;;;;9.27;7.27;;;13.90;99.90;;;;;;5104849;28;20629;-70
2023/05/09 00:50:29;;;;;;;6.70;6.10;;;13.80;99.90;;;;;;5095043;28;20651;-70
2023/05/09 00:52:56;;;;;;;8.77;5.53;;;13.70;99.90;;;;;;5111001;28;21264;-70
2023/05/09 00:55:23;;;;;;;6.73;6.00;;;13.80;99.90;;;;;;5104531;28;22396;-71
2023/05/09 00:57:50;;;;;;;10.27;6.43;;;13.80;99.90;;;;;;5110987;28;20631;-71
2023/05/09 01:00:18;;;;;;;10.97;6.50;;;13.80;99.90;;;;;;5092526;28;20621;-70
2023/05/09 01:02:48;;;;;;;7.70;4.67;;;13.80;99.90;;;;;;5106204;28;20633;-70
2023/05/09 01:05:17;;;;;;;12.53;6.80;;;13.70;99.90;;;;;;5096496;28;20723;-70
2023/05/09 01:07:49;;;;;;;9.53;6.50;;;13.60;99.90;;;;;;5090833;28;21121;-70
2023/05/09 01:10:22;;;;;;;9.63;5.67;;;13.50;99.90;;;;;;5095328;28;20745;-70
2023/05/09 01:12:55;;;;;;;8.30;6.17;;;13.50;99.90;;;;;;5103616;28;20976;-70
2023/05/09 01:15:28;;;;;;;6.73;5.30;;;13.50;99.90;;;;;;5092158;28;22016;-70
2023/05/09 01:18:00;;;;;;;5.90;4.57;;;13.50;99.90;;;;;;5090983;28;20666;-70
2023/05/09 01:20:33;;;;;;;9.70;6.70;;;13.50;99.90;;;;;;5090232;28;20650;-70
2023/05/09 01:23:29;;;;;;;10.23;6.70;;;13.50;99.90;;;;;;5096940;28;20652;-70
2023/05/09 01:26:03;;;;;;;10.03;5.57;;;13.50;99.90;;;;;;5101259;28;21053;-70
2023/05/09 01:28:44;;;;;;;7.40;6.00;;;13.50;99.90;;;;;;5095012;28;21015;-70
2023/05/09 01:31:13;;;;;;;9.33;6.30;;;13.40;99.90;;;;;;5113739;28;20658;-70
2023/05/09 01:33:45;;;;;;;8.90;5.93;;;13.40;99.90;;;;;;5112760;28;20623;-71
2023/05/09 01:36:17;;;;;;;5.57;4.67;;;13.40;99.90;;;;;;5102073;28;20667;-71
2023/05/09 01:38:44;;;;;;;8.50;6.17;;;13.50;99.90;;;;;;5114881;28;20629;-71
2023/05/09 01:41:15;;;;;;;8.43;6.53;;;13.50;99.90;;;;;;5103660;28;21215;-70
2023/05/09 01:43:47;;;;;;;9.93;6.50;;;13.50;99.90;;;;;;5096308;28;20624;-70
2023/05/09 01:46:18;;;;;;;12.87;7.20;;;13.60;99.90;;;;;;5094296;28;20652;-70
2023/05/09 01:48:46;;;;;;;5.93;4.90;;;13.50;99.90;;;;;;5111007;28;20633;-71
2023/05/09 01:51:14;;;;;;;7.97;6.43;;;13.50;99.90;;;;;;5095841;28;20635;-70
2023/05/09 01:53:43;;;;;;;7.50;6.23;;;13.50;99.90;;;;;;5114387;28;20727;-70
2023/05/09 01:56:11;;;;;;;9.87;6.30;;;13.50;99.90;;;;;;5097911;28;20653;-70
2023/05/09 01:58:41;;;;;;;9.23;6.63;;;13.50;99.90;;;;;;5106807;28;20633;-70
2023/05/09 02:01:10;;;;;;;8.37;6.00;;;13.50;99.90;;;;;;5093860;28;21039;-70
2023/05/09 02:03:40;;;;;;;9.80;7.40;;;13.60;99.90;;;;;;5095311;28;20714;-70
2023/05/09 02:06:08;;;;;;;6.27;5.13;;;13.60;99.90;;;;;;5102314;28;20640;-71
2023/05/09 02:08:35;;;;;;;10.10;7.33;;;13.50;99.90;;;;;;5094404;28;20646;-71
2023/05/09 02:11:02;;;;;;;10.33;6.73;;;13.40;99.90;;;;;;5102583;28;20748;-71
2023/05/09 02:13:29;;;;;;;7.77;5.93;;;13.30;99.90;;;;;;5112561;28;20678;-71
2023/05/09 02:15:57;;;;;;;8.80;6.50;;;13.20;99.90;;;;;;5110875;28;20759;-71
2023/05/09 02:18:23;;;;;;;9.53;5.30;;;13.20;99.90;;;;;;5114049;28;20943;-71
2023/05/09 02:20:52;;;;;;;7.73;5.60;;;13.30;99.90;;;;;;5107229;28;20674;-71
2023/05/09 02:23:20;;;;;;;7.70;5.13;;;13.20;99.90;;;;;;5095671;28;20626;-72
2023/05/09 02:25:48;;;;;;;7.07;5.70;;;13.20;99.90;;;;;;5105353;28;20721;-71
2023/05/09 02:28:16;;;;;;;6.50;5.90;;;13.20;99.90;;;;;;5113864;28;20652;-71
2023/05/09 02:30:47;;;;;;;7.57;5.87;;;13.30;99.90;;;;;;5093566;28;21208;-71
2023/05/09 02:33:15;;;;;;;10.77;7.93;;;13.40;99.90;;;;;;5102994;28;20862;-71
2023/05/09 02:35:46;;;;;;;9.57;6.20;;;13.50;99.90;;;;;;5094230;28;20709;-71
2023/05/09 02:38:14;;;;;;;10.27;7.10;;;13.50;99.90;;;;;;5092614;28;20738;-71
2023/05/09 02:40:43;;;;;;;10.33;7.40;;;13.60;99.90;;;;;;5098649;28;20991;-71
2023/05/09 02:43:10;;;;;;;9.27;5.70;;;13.60;99.90;;;;;;5101542;28;20687;-71
2023/05/09 02:45:37;;;;;;;12.57;7.50;;;13.60;99.90;;;;;;5101214;28;20719;-71
2023/05/09 02:48:05;;;;;;;7.80;6.17;;;13.50;99.90;;;;;;5112759;28;20655;-71
2023/05/09 02:50:33;;;;;;;10.00;7.63;;;13.40;99.90;;;;;;5104354;28;21300;-71
2023/05/09 02:53:01;;;;;;;7.20;6.00;;;13.40;99.90;;;;;;5096794;28;20626;-71
2023/05/09 02:55:30;;;;;;;14.83;8.40;;;13.40;99.90;;;;;;5102687;28;21011;-71
2023/05/09 02:57:57;;;;;;;11.10;7.53;;;13.40;99.90;;;;;;5106419;28;20971;-71
2023/05/09 03:00:25;;;;;;;11.00;6.87;;;13.40;99.90;;;;;;5110840;28;20643;-71
2023/05/09 03:02:52;;;;;;;8.60;6.13;;;13.30;99.90;;;;;;5113546;28;20616;-71
2023/05/09 03:05:20;;;;;;;8.80;6.97;;;13.30;99.90;;;;;;5112717;28;20626;-71
2023/05/09 03:07:50;;;;;;;10.20;5.83;;;13.20;99.90;;;;;;5110368;28;21062;-71
2023/05/09 03:10:17;;;;;;;9.70;5.50;;;13.30;99.90;;;;;;5097479;28;20649;-71
2023/05/09 03:12:45;;;;;;;8.43;6.60;;;13.30;99.90;;;;;;5111597;28;20962;-71
2023/05/09 03:15:12;;;;;;;11.90;7.67;;;13.30;99.90;;;;;;5092481;28;20631;-71
2023/05/09 03:17:39;;;;;;;7.70;6.77;;;13.30;99.90;;;;;;5092162;28;20754;-70
2023/05/09 03:20:09;;;;;;;6.57;5.50;;;13.20;99.90;;;;;;5105335;28;20642;-69
2023/05/09 03:22:36;;;;;;;11.50;6.87;;;13.20;99.90;;;;;;5092497;28;20618;-69
2023/05/09 03:25:02;;;;;;;13.27;7.57;;;13.30;99.90;;;;;;5094170;28;20742;-69
2023/05/09 03:27:29;;;;;;;12.80;8.33;;;13.30;99.90;;;;;;5092267;28;21025;-69
2023/05/09 03:29:57;;;;;;;7.83;6.87;;;13.40;99.90;;;;;;5091552;28;20646;-69
2023/05/09 03:32:24;;;;;;;8.67;7.73;;;13.40;99.90;;;;;;5107460;28;20665;-69
2023/05/09 03:34:51;;;;;;;8.43;7.30;;;13.50;99.90;;;;;;5096983;28;21248;-71
2023/05/09 03:37:18;;;;;;;8.83;6.13;;;13.40;99.90;;;;;;5108309;28;21012;-71
2023/05/09 03:39:45;;;;;;;11.60;8.83;;;13.40;99.90;;;;;;5111977;28;21163;-71
2023/05/09 03:42:12;;;;;;;9.77;6.00;;;13.40;99.90;;;;;;5108593;28;20672;-71
2023/05/09 03:44:38;;;;;;;9.77;7.33;;;13.30;99.90;;;;;;5110964;28;21009;-71
2023/05/09 03:47:06;;;;;;;11.07;8.00;;;13.30;99.90;;;;;;5110841;28;21218;-71
2023/05/09 03:49:33;;;;;;;9.90;6.27;;;13.20;99.90;;;;;;5111931;28;21220;-70
2023/05/09 03:52:00;;;;;;;9.63;5.77;;;13.20;99.90;;;;;;5112354;28;20660;-71
2023/05/09 03:54:27;;;;;;;10.70;6.83;;;13.10;99.90;;;;;;5112211;28;20948;-71
2023/05/09 03:56:53;;;;;;;7.27;6.50;;;13.10;99.90;;;;;;5112090;28;21223;-71
2023/05/09 03:59:20;;;;;;;10.73;8.13;;;13.10;99.90;;;;;;5108639;28;20626;-71
2023/05/09 04:01:47;;;;;;;9.57;7.57;;;13.10;99.90;;;;;;5111774;28;20661;-71
2023/05/09 04:04:15;;;;;;;11.43;8.20;;;13.00;99.90;;;;;;5112576;28;21154;-71
2023/05/09 04:06:42;;;;;;;12.03;8.43;;;12.90;99.90;;;;;;5111967;28;20642;-71
2023/05/09 04:09:09;;;;;;;8.63;7.37;;;12.80;99.90;;;;;;5112162;28;20618;-71
2023/05/09 04:11:36;;;;;;;7.23;6.10;;;12.80;99.90;;;;;;5111355;28;20662;-72
2023/05/09 04:14:05;;;;;;;10.80;8.17;;;12.80;99.90;;;;;;5111568;28;21029;-71
2023/05/09 04:16:32;;;;;;;9.13;5.80;;;12.80;99.90;;;;;;5110158;28;21067;-71
2023/05/09 04:18:59;;;;;;;8.00;7.10;;;12.70;99.90;;;;;;5112035;28;20973;-70
2023/05/09 04:21:27;;;;;;;7.93;6.37;;;12.60;99.90;;;;;;5111369;28;20654;-71
2023/05/09 04:23:54;;;;;;;10.57;6.67;;;12.70;99.90;;;;;;5111606;28;20625;-71
2023/05/09 04:26:21;;;;;;;9.80;7.73;;;12.60;99.90;;;;;;5111550;28;21068;-71
2023/05/09 04:28:48;;;;;;;8.00;5.80;;;12.60;99.90;;;;;;5111729;28;21131;-71
2023/05/09 04:31:16;;;;;;;6.70;5.53;;;12.60;99.90;;;;;;5111127;28;20654;-71
2023/05/09 04:33:42;;;;;;;13.80;8.00;;;12.70;99.90;;;;;;5102122;28;20659;-71
2023/05/09 04:36:10;;;;;;;19.07;13.00;;;12.60;99.90;;;;;;5091171;28;20681;-71
2023/05/09 04:38:38;;;;;;;25.47;14.00;;;12.50;99.90;;;;;;5091017;28;20626;-71
2023/05/09 04:41:05;;;;;;;20.40;13.70;;;12.60;99.90;;;;;;5095155;28;20737;-71
2023/05/09 04:43:32;;;;;;;17.17;11.73;;;12.70;99.90;;;;;;5111831;28;20670;-71
2023/05/09 04:45:59;;;;;;;17.67;11.93;;;12.80;99.90;;;;;;5109792;28;20657;-71
2023/05/09 04:48:25;;;;;;;14.57;9.90;;;12.90;99.90;;;;;;5111645;28;20612;-72
2023/05/09 04:50:52;;;;;;;11.40;7.93;;;12.90;99.90;;;;;;5101317;28;20653;-72
2023/05/09 04:53:19;;;;;;;8.67;7.13;;;12.90;99.90;;;;;;5090079;28;20635;-72
2023/05/09 04:55:47;;;;;;;10.50;6.93;;;13.00;99.90;;;;;;5090800;28;20666;-72
2023/05/09 04:58:14;;;;;;;14.03;7.40;;;13.00;99.90;;;;;;5091626;28;20659;-72
2023/05/09 05:00:41;;;;;;;11.93;6.83;;;13.10;99.90;;;;;;5110251;28;21086;-72
2023/05/09 05:03:07;;;;;;;9.80;7.10;;;13.20;99.90;;;;;;5111599;28;20985;-72
2023/05/09 05:05:34;;;;;;;11.23;7.20;;;13.20;99.90;;;;;;5111604;28;20998;-71
2023/05/09 05:08:01;;;;;;;10.70;6.60;;;13.40;99.90;;;;;;5105976;28;20636;-72
2023/05/09 05:10:29;;;;;;;16.23;8.20;;;13.40;99.90;;;;;;5099550;28;20662;-72
2023/05/09 05:12:57;;;;;;;11.43;6.73;;;13.50;99.90;;;;;;5111315;28;20811;-72
2023/05/09 05:15:24;;;;;;;9.70;7.13;;;13.60;99.90;;;;;;5111274;28;20643;-72
2023/05/09 05:17:51;;;;;;;10.53;7.27;;;13.60;99.90;;;;;;5111076;28;20658;-72
2023/05/09 05:20:18;;;;;;;8.80;6.43;;;13.60;99.90;;;;;;5110407;28;20614;-72
2023/05/09 05:22:45;;;;;;;6.93;6.17;;;13.60;99.90;;;;;;5110976;28;21046;-72
2023/05/09 05:25:12;;;;;;;11.10;8.40;;;13.70;99.90;;;;;;5110244;28;20612;-72
2023/05/09 05:27:39;;;;;;;13.33;6.63;;;13.80;99.90;;;;;;5110453;28;20627;-72
2023/05/09 05:30:09;;;;;;;17.30;7.37;;;13.70;99.90;;;;;;5108540;28;20633;-72
2023/05/09 05:32:35;;;;;;;9.87;6.37;;;13.70;99.90;;;;;;5110311;28;20643;-72
2023/05/09 05:35:03;;;;;;;7.80;6.60;;;13.70;99.90;;;;;;5110771;28;20715;-72
2023/05/09 05:37:30;;;;;;;9.03;5.73;;;13.80;99.90;;;;;;5110831;28;20663;-72
2023/05/09 05:39:57;;;;;;;10.50;6.37;;;13.90;99.90;;;;;;5110436;28;20620;-71
2023/05/09 05:42:24;;;;;;;8.73;5.07;;;13.90;99.90;;;;;;5110659;28;20743;-72
2023/05/09 05:44:51;;;;;;;11.60;5.80;;;13.90;99.90;;;;;;5093982;28;20627;-72
2023/05/09 05:47:19;;;;;;;12.63;8.53;;;13.90;99.90;;;;;;5090402;28;20638;-72
2023/05/09 05:49:45;;;;;;;9.23;6.70;;;13.90;99.90;;;;;;5089771;28;20964;-72
2023/05/09 05:52:12;;;;;;;12.37;8.30;;;14.00;99.90;;;;;;5090674;28;20699;-72
2023/05/09 05:54:39;;;;;;;12.83;8.40;;;14.00;99.90;;;;;;5090378;28;20723;-72
2023/05/09 05:57:07;;;;;;;13.17;7.70;;;13.90;99.90;;;;;;5090473;28;20659;-72
2023/05/09 05:59:33;;;;;;;9.90;7.03;;;14.00;99.90;;;;;;5101912;28;20673;-72
2023/05/09 06:02:00;;;;;;;11.60;8.90;;;14.10;99.90;;;;;;5101371;28;20672;-71
2023/05/09 06:04:28;;;;;;;13.23;7.30;;;14.00;99.90;;;;;;5092439;28;20657;-72
2023/05/09 06:06:55;;;;;;;14.80;9.00;;;14.10;99.90;;;;;;5090814;28;20645;-72
2023/05/09 06:09:22;;;;;;;11.23;8.00;;;14.10;99.90;;;;;;5089842;28;20969;-72
2023/05/09 06:11:48;;;;;;;11.40;8.13;;;14.20;99.90;;;;;;5091148;28;20648;-72
2023/05/09 06:14:15;;;;;;;8.83;6.20;;;14.20;99.90;;;;;;5093770;28;21208;-72
2023/05/09 06:16:42;;;;;;;14.53;7.40;;;14.20;99.90;;;;;;5093771;28;20752;-72
2023/05/09 06:19:09;;;;;;;9.33;6.90;;;14.30;99.90;;;;;;5094397;28;20732;-72
2023/05/09 06:21:37;;;;;;;12.17;6.97;;;14.20;99.90;;;;;;5093450;28;20759;-72
2023/05/09 06:24:04;;;;;;;11.73;8.47;;;14.30;99.90;;;;;;5093771;28;20619;-72
2023/05/09 06:26:31;;;;;;;11.57;7.07;;;14.40;99.90;;;;;;5093395;28;20652;-72
2023/05/09 06:28:58;;;;;;;9.63;7.47;;;14.30;99.90;;;;;;5093814;28;20961;-72
2023/05/09 06:31:25;;;;;;;9.60;6.47;;;14.30;99.90;;;;;;5092249;28;20667;-72
2023/05/09 06:33:52;;;;;;;8.80;7.40;;;14.20;99.90;;;;;;5093785;28;20602;-72
2023/05/09 06:36:19;;;;;;;14.10;7.53;;;14.30;99.90;;;;;;5094582;28;20653;-72
2023/05/09 06:38:47;;;;;;;13.03;7.40;;;14.30;99.90;;;;;;5101094;28;20652;-72
2023/05/09 06:41:14;;;;;;;10.07;7.70;;;14.40;99.90;;;;;;5113118;28;20714;-72
2023/05/09 06:43:41;;;;;;;11.20;7.33;;;14.40;99.90;;;;;;5113693;28;21156;-72
2023/05/09 06:46:07;;;;;;;10.77;7.53;;;14.40;99.90;;;;;;5111607;28;20632;-72
2023/05/09 06:48:34;;;;;;;12.03;8.10;;;14.40;99.90;;;;;;5113993;28;20631;-72
2023/05/09 06:51:01;;;;;;;10.40;7.90;;;14.40;99.90;;;;;;5113123;28;20640;-72
2023/05/09 06:53:28;;;;;;;9.57;8.20;;;14.40;99.90;;;;;;5111917;28;20635;-72
2023/05/09 06:55:56;;;;;;;11.77;8.63;;;14.60;99.90;;;;;;5113055;28;21246;-72
2023/05/09 06:58:23;;;;;;;10.10;6.60;;;14.80;99.90;;;;;;5113533;28;20636;-72
2023/05/09 07:00:50;;;;;;;8.30;7.10;;;14.90;99.90;;;;;;5112569;28;20644;-72
2023/05/09 07:03:16;;;;;;;8.80;6.40;;;15.00;99.90;;;;;;5113395;28;20628;-72
2023/05/09 07:05:43;;;;;;;9.00;6.20;;;14.90;99.90;;;;;;5113483;28;20648;-72
2023/05/09 07:08:10;;;;;;;10.97;6.60;;;15.00;99.90;;;;;;5112193;28;20720;-72
2023/05/09 07:10:37;;;;;;;11.83;6.70;;;15.00;99.90;;;;;;5107408;28;21036;-72
2023/05/09 07:13:05;;;;;;;9.23;7.60;;;15.10;99.90;;;;;;5091909;28;20625;-72
2023/05/09 07:15:32;;;;;;;8.83;6.93;;;15.20;99.90;;;;;;5092641;28;20635;-72
2023/05/09 07:17:59;;;;;;;10.23;8.40;;;15.30;99.90;;;;;;5092854;28;20665;-72
2023/05/09 07:20:26;;;;;;;10.83;7.40;;;15.40;99.90;;;;;;5091810;28;20694;-72
2023/05/09 07:22:52;;;;;;;13.27;7.97;;;15.40;99.90;;;;;;5092396;28;20946;-72
2023/05/09 07:25:19;;;;;;;11.90;7.37;;;15.40;99.90;;;;;;5093051;28;20734;-72
2023/05/09 07:27:46;;;;;;;15.07;6.73;;;15.50;99.90;;;;;;5104169;28;20618;-72
2023/05/09 07:30:15;;;;;;;12.00;7.33;;;15.50;99.90;;;;;;5106766;28;20644;-72
2023/05/09 07:32:42;;;;;;;12.70;8.20;;;15.60;99.90;;;;;;5110028;28;20633;-72
2023/05/09 07:35:08;;;;;;;8.33;6.50;;;15.70;99.90;;;;;;5092283;28;20627;-72
2023/05/09 07:37:35;;;;;;;8.67;7.13;;;15.80;99.90;;;;;;5092536;28;20651;-72
2023/05/09 07:40:04;;;;;;;9.20;7.03;;;16.00;99.90;;;;;;5091614;28;21049;-72
2023/05/09 07:42:32;;;;;;;9.57;6.27;;;16.10;99.90;;;;;;5108527;28;20914;-72
2023/05/09 07:44:59;;;;;;;10.90;7.00;;;16.20;99.90;;;;;;5112809;28;20629;-72
2023/05/09 07:47:27;;;;;;;9.67;6.93;;;16.20;99.90;;;;;;5111381;28;20645;-71
2023/05/09 07:49:54;;;;;;;7.13;5.83;;;16.30;99.90;;;;;;5112096;28;20614;-72
2023/05/09 07:52:21;;;;;;;5.93;5.23;;;16.40;99.90;;;;;;5112364;28;20685;-71
2023/05/09 07:54:47;;;;;;;7.43;6.57;;;16.40;99.90;;;;;;5107240;28;20725;-72
2023/05/09 07:57:14;;;;;;;8.13;6.13;;;16.50;99.90;;;;;;5111837;28;20654;-72
2023/05/09 07:59:42;;;;;;;7.77;5.33;;;16.60;99.90;;;;;;5111681;28;20622;-72
2023/05/09 08:02:09;;;;;;;6.27;4.87;;;16.70;99.90;;;;;;5112047;28;20654;-71
2023/05/09 08:04:39;;;;;;;8.63;6.10;;;16.80;99.90;;;;;;5112330;28;20653;-72
2023/05/09 08:07:07;;;;;;;7.43;5.73;;;16.90;99.90;;;;;;5112544;28;20646;-71
2023/05/09 08:09:34;;;;;;;9.40;6.93;;;17.10;99.90;;;;;;5111220;28;20604;-71
2023/05/09 08:12:01;;;;;;;7.03;5.00;;;17.20;99.90;;;;;;5111957;28;20753;-72
2023/05/09 08:14:28;;;;;;;3.93;3.57;;;17.30;99.90;;;;;;5098254;28;20667;-70
2023/05/09 08:16:55;;;;;;;8.03;4.23;;;17.40;99.90;;;;;;5101899;28;20673;-70
2023/05/09 08:19:24;;;;;;;7.07;3.90;;;17.50;99.90;;;;;;5110239;28;20881;-70
2023/05/09 08:21:52;;;;;;;4.60;4.13;;;17.50;99.90;;;;;;5110540;28;20652;-70
2023/05/09 08:24:19;;;;;;;5.80;3.73;;;17.50;99.90;;;;;;5105354;27;21148;-70
2023/05/09 08:26:46;;;;;;;5.53;4.60;;;17.70;99.90;;;;;;5109215;28;20741;-71
2023/05/09 08:29:13;;;;;;;8.17;5.07;;;17.70;99.90;;;;;;5109625;28;20720;-71
2023/05/09 08:31:40;;;;;;;7.20;5.70;;;17.80;99.90;;;;;;5109311;28;20659;-71
2023/05/09 08:34:07;;;;;;;7.30;5.20;;;18.00;99.90;;;;;;5110531;28;21192;-71
2023/05/09 08:36:33;;;;;;;6.70;5.13;;;18.00;99.90;;;;;;5110828;28;20627;-71
2023/05/09 08:39:02;;;;;;;8.73;5.47;;;18.20;99.90;;;;;;5111304;28;20652;-71
2023/05/09 08:41:29;;;;;;;6.07;4.83;;;18.50;99.90;;;;;;5110527;27;20643;-71
2023/05/09 08:43:56;;;;;;;6.40;5.53;;;18.60;99.90;;;;;;5111141;28;20620;-71
2023/05/09 08:46:28;;;;;;;6.07;4.17;;;18.70;99.90;;;;;;5109365;28;20655;-71
2023/05/09 08:48:55;;;;;;;6.40;4.97;;;18.70;99.90;;;;;;5110723;28;20681;-71
2023/05/09 08:51:23;;;;;;;8.73;6.00;;;18.80;99.90;;;;;;5106143;27;21536;-72
2023/05/09 08:53:50;;;;;;;7.33;5.60;;;18.90;99.90;;;;;;5110556;28;20673;-71
2023/05/09 08:56:19;;;;;;;5.57;4.77;;;19.00;99.90;;;;;;5110599;28;20631;-71
2023/05/09 08:58:45;;;;;;;5.20;4.70;;;19.10;99.90;;;;;;5110942;28;21227;-71
2023/05/09 09:01:13;;;;;;;4.47;4.03;;;19.20;99.90;;;;;;5110429;28;20668;-71
2023/05/09 09:03:46;;;;;;;6.17;4.67;;;19.20;99.90;;;;;;5109731;28;20627;-71
2023/05/09 09:06:13;;;;;;;6.90;4.67;;;19.20;99.90;;;;;;5102645;28;20643;-71
2023/05/09 09:08:40;;;;;;;4.20;3.30;;;19.10;99.90;;;;;;5110784;28;21005;-71
2023/05/09 09:11:07;;;;;;;5.87;4.63;;;19.00;99.70;;;;;;5110319;28;20636;-71
2023/05/09 09:13:39;;;;;;;7.00;4.93;;;19.00;98.80;;;;;;5110505;28;21186;-71
2023/05/09 09:16:06;;;;;;;7.43;5.20;;;18.80;99.00;;;;;;5110545;28;20678;-71
2023/05/09 09:18:35;;;;;;;7.00;4.73;;;18.70;99.30;;;;;;5112081;28;20758;-71
2023/05/09 09:21:06;;;;;;;10.43;5.77;;;18.70;99.00;;;;;;5108820;28;21204;-71
2023/05/09 09:23:34;;;;;;;8.77;6.17;;;18.60;98.40;;;;;;5109287;28;20675;-71
2023/05/09 09:26:03;;;;;;;6.17;4.27;;;18.50;98.70;;;;;;5111584;28;20639;-71
2023/05/09 09:28:30;;;;;;;6.00;4.27;;;18.60;98.70;;;;;;5110483;28;21020;-71
2023/05/09 09:30:58;;;;;;;4.70;4.30;;;18.50;98.80;;;;;;5108576;28;20665;-71
2023/05/09 09:33:26;;;;;;;5.57;4.97;;;18.50;99.20;;;;;;5106757;28;21207;-71
2023/05/09 09:35:54;;;;;;;5.50;4.00;;;18.50;99.40;;;;;;5110536;28;20640;-71
2023/05/09 09:38:22;;;;;;;5.57;4.97;;;18.70;99.20;;;;;;5110754;28;20708;-71
2023/05/09 09:40:53;;;;;;;4.60;4.17;;;18.70;99.20;;;;;;5108535;28;20650;-71
2023/05/09 09:43:20;;;;;;;5.67;4.07;;;18.80;98.50;;;;;;5105848;28;20750;-71
2023/05/09 09:45:49;;;;;;;4.17;3.70;;;18.80;99.30;;;;;;5109677;28;20639;-71
2023/05/09 09:48:17;;;;;;;5.47;4.97;;;18.80;98.90;;;;;;5113017;28;20619;-71
2023/05/09 09:50:47;;;;;;;4.07;3.40;;;19.00;98.60;;;;;;5112844;28;20640;-71
2023/05/09 09:53:14;;;;;;;4.17;3.70;;;19.10;98.60;;;;;;5114303;28;21176;-72
2023/05/09 09:55:50;;;;;;;3.57;3.27;;;19.30;97.60;;;;;;5114241;28;20635;-72
2023/05/09 09:58:20;;;;;;;6.43;4.73;;;19.30;97.60;;;;;;5114092;28;20647;-72
2023/05/09 10:00:49;;;;;;;4.50;3.77;;;19.20;97.80;;;;;;5114107;28;20743;-72
2023/05/09 10:03:17;;;;;;;4.57;3.70;;;19.20;98.40;;;;;;5114223;28;20715;-72
2023/05/09 10:05:44;;;;;;;5.20;4.30;;;19.00;97.50;;;;;;5114365;28;20647;-71
2023/05/09 10:08:11;;;;;;;5.47;4.30;;;19.00;98.80;;;;;;5113784;28;20995;-71
2023/05/09 10:10:38;;;;;;;4.40;4.00;;;19.10;99.30;;;;;;5113684;28;21227;-71
2023/05/09 10:13:08;;;;;;;6.17;4.93;;;19.20;99.20;;;;;;5114009;28;20615;-71
2023/05/09 10:15:36;;;;;;;5.70;4.70;;;19.30;98.30;;;;;;5114281;28;20739;-71
2023/05/09 10:18:04;;;;;;;5.73;4.53;;;19.50;98.10;;;;;;5114030;28;20952;-71
2023/05/09 10:20:32;;;;;;;4.40;4.00;;;19.40;97.70;;;;;;5113300;28;20704;-70
2023/05/09 10:23:03;;;;;;;6.10;4.10;;;19.50;97.60;;;;;;5114073;28;20633;-71
2023/05/09 10:25:39;;;;;;;5.57;4.50;;;19.50;98.10;;;;;;5114150;28;20750;-70
2023/05/09 10:28:10;;;;;;;7.43;5.23;;;19.70;98.40;;;;;;5113917;28;20628;-70
2023/05/09 10:30:47;;;;;;;5.77;4.57;;;19.90;98.00;;;;;;5113174;28;21070;-70
2023/05/09 10:33:17;;;;;;;6.70;4.90;;;20.10;98.10;;;;;;5113184;28;20608;-70
2023/05/09 10:35:47;;;;;;;6.30;4.83;;;20.30;97.70;;;;;;5113893;27;20649;-70
2023/05/09 10:38:13;;;;;;;6.53;5.30;;;20.50;97.10;;;;;;5113898;28;20620;-71
2023/05/09 10:40:41;;;;;;;8.87;5.63;;;20.70;97.50;;;;;;5112804;28;20658;-71
2023/05/09 10:43:08;;;;;;;4.90;4.30;;;20.60;96.60;;;;;;5112748;28;20619;-71
2023/05/09 10:45:35;;;;;;;5.73;4.43;;;20.80;97.20;;;;;;5111817;28;20736;-71
2023/05/09 10:48:03;;;;;;;6.30;4.60;;;21.00;94.80;;;;;;5112473;28;20624;-71
2023/05/09 10:50:31;;;;;;;5.80;5.20;;;21.30;94.90;;;;;;5113017;28;21003;-71
2023/05/09 10:53:13;;;;;;;6.93;5.90;;;21.50;95.90;;;;;;5113514;28;20641;-72
2023/05/09 10:55:49;;;;;;;5.07;4.67;;;21.20;95.00;;;;;;5113212;28;20675;-71
2023/05/09 10:58:25;;;;;;;8.50;6.10;;;21.30;94.90;;;;;;5111842;28;21167;-71
2023/05/09 11:00:53;;;;;;;4.97;4.57;;;21.50;94.70;;;;;;5112709;28;20643;-71
2023/05/09 11:03:20;;;;;;;6.83;5.00;;;21.40;94.50;;;;;;5113325;28;20623;-71
2023/05/09 11:05:48;;;;;;;5.20;4.40;;;21.50;94.20;;;;;;5113389;28;20643;-71
2023/05/09 11:08:24;;;;;;;5.10;4.60;;;21.50;94.30;;;;;;5112973;28;20617;-71
2023/05/09 11:10:51;;;;;;;5.73;4.40;;;21.70;94.20;;;;;;5112585;28;20655;-71
2023/05/09 11:13:20;;;;;;;3.63;3.30;;;21.90;93.30;;;;;;5113135;28;20620;-71
2023/05/09 11:16:08;;;;;;;3.93;3.60;;;22.20;93.10;;;;;;5113189;28;20646;-71
2023/05/09 11:18:35;;;;;;;3.83;3.47;;;22.30;92.80;;;;;;5112705;28;21235;-71
2023/05/09 11:21:08;;;;;;;4.80;2.93;;;22.60;91.60;;;;;;5112051;28;20689;-71
2023/05/09 11:23:38;;;;;;;3.40;2.63;;;23.00;92.90;;;;;;5112921;28;20620;-71
2023/05/09 11:26:06;;;;;;;2.17;1.97;;;23.20;92.10;;;;;;5112931;28;20738;-71
2023/05/09 11:28:35;;;;;;;2.03;1.80;;;23.20;90.40;;;;;;5112491;28;20703;-71
2023/05/09 11:31:12;;;;;;;2.60;2.27;;;23.40;89.40;;;;;;5112021;28;20786;-71
2023/05/09 11:33:40;;;;;;;5.83;2.63;;;23.30;86.60;;;;;;5111977;28;20631;-71
2023/05/09 11:36:24;;;;;;;2.60;2.40;;;23.40;89.10;;;;;;5112929;28;20640;-71
2023/05/09 11:39:03;;;;;;;2.20;1.73;;;23.80;88.90;;;;;;5112321;27;21261;-71
2023/05/09 11:41:30;;;;;;;1.77;1.67;;;24.20;88.70;;;;;;5112191;28;20640;-71
2023/05/09 11:43:59;;;;;;;2.00;1.60;;;24.10;85.30;;;;;;5111837;28;20984;-71
2023/05/09 11:46:26;;;;;;;3.03;2.73;;;24.30;84.10;;;;;;5111495;28;21212;-71
2023/05/09 11:48:54;;;;;;;1.93;1.63;;;24.60;84.10;;;;;;5112329;28;20638;-71
2023/05/09 11:51:20;;;;;;;3.47;2.73;;;25.10;80.30;;;;;;5111949;28;20660;-71
2023/05/09 11:53:52;;;;;;;1.90;1.80;;;25.20;81.90;;;;;;5112734;28;20634;-72
2023/05/09 11:56:21;;;;;;;2.27;2.07;;;25.30;81.40;;;;;;5103680;28;20697;-71
2023/05/09 11:58:51;;;;;;;1.80;1.70;;;26.00;80.00;;;;;;5112011;28;20654;-72
2023/05/09 12:01:18;;;;;;;1.50;1.40;;;26.30;77.50;;;;;;5111595;28;20682;-72
2023/05/09 12:03:45;;;;;;;1.27;1.17;;;26.40;73.20;;;;;;5112060;28;20630;-71
2023/05/09 12:06:15;;;;;;;1.23;1.13;;;26.10;73.20;;;;;;5112164;28;21215;-71
2023/05/09 12:08:43;;;;;;;1.50;1.40;;;25.80;72.50;;;;;;5112088;28;20616;-71
2023/05/09 12:11:10;;;;;;;1.47;1.37;;;25.90;73.70;;;;;;5110981;28;20640;-71
2023/05/09 12:13:46;;;;;;;1.70;1.60;;;26.20;73.80;;;;;;5112264;28;20723;-72
2023/05/09 12:16:13;;;;;;;1.50;1.40;;;26.30;69.40;;;;;;5111883;28;20647;-71
2023/05/09 12:18:44;;;;;;;1.13;1.07;;;25.50;71.60;;;;;;5103427;28;20977;-71
2023/05/09 12:21:12;;;;;;;1.07;1.00;;;25.10;73.00;;;;;;5111133;28;20642;-71
2023/05/09 12:23:38;;;;;;;1.77;1.40;;;24.60;74.00;;;;;;5111312;28;20638;-71
2023/05/09 12:26:05;;;;;;;2.03;1.93;;;24.60;75.60;;;;;;5111504;28;20658;-71
2023/05/09 12:28:32;;;;;;;1.63;1.53;;;24.20;78.30;;;;;;5111694;28;20612;-71
2023/05/09 12:31:01;;;;;;;1.60;1.50;;;24.10;79.90;;;;;;5110974;28;20677;-71
2023/05/09 12:33:28;;;;;;;1.27;1.17;;;24.40;73.40;;;;;;5111497;28;20619;-71
2023/05/09 12:36:04;;;;;;;1.20;1.00;;;24.00;75.80;;;;;;5111243;28;20643;-71
2023/05/09 12:38:31;;;;;;;1.27;1.00;;;24.00;78.20;;;;;;5111800;28;20634;-71
2023/05/09 12:41:02;;;;;;;1.10;1.10;;;23.80;77.00;;;;;;5110886;28;20667;-71
2023/05/09 12:43:31;;;;;;;1.47;1.37;;;23.70;75.00;;;;;;5111617;28;20649;-71
2023/05/09 12:45:58;;;;;;;2.30;1.40;;;23.50;74.80;;;;;;5110628;28;20757;-71
2023/05/09 12:48:26;;;;;;;0.97;0.90;;;23.30;77.20;;;;;;5110862;28;20626;-71